sensor_id;sensor_type;location;lat;lon;timestamp;pressure;altitude;pressure_sealevel;temperature;humidity
69247;BME280;56358;56.328;43.992;2023-02-28T00:00:23;100667.91;;;-6.64;66.50
69247;BME280;56358;56.328;43.992;2023-02-28T00:02:24;100668.78;;;-6.63;66.48
69247;BME280;56358;56.328;43.992;2023-02-28T00:04:25;100620.25;;;-6.94;66.56
69247;BME280;56358;56.328;43.992;2023-02-28T00:06:26;100635.03;;;-6.97;66.52
69247;BME280;56358;56.328;43.992;2023-02-28T00:08:27;100654.09;;;-6.89;66.56
69247;BME280;56358;56.328;43.992;2023-02-28T00:10:29;100663.69;;;-6.91;66.69
69247;BME280;56358;56.328;43.992;2023-02-28T00:12:30;100653.31;;;-7.10;66.81
69247;BME280;56358;56.328;43.992;2023-02-28T00:14:31;100658.50;;;-7.07;67.16
69247;BME280;56358;56.328;43.992;2023-02-28T00:16:31;100657.63;;;-7.12;66.81
69247;BME280;56358;56.328;43.992;2023-02-28T00:18:32;100668.09;;;-7.22;67.18
69247;BME280;56358;56.328;43.992;2023-02-28T00:20:33;100669.84;;;-7.25;67.00
69247;BME280;56358;56.328;43.992;2023-02-28T00:22:34;100663.78;;;-7.36;67.30
69247;BME280;56358;56.328;43.992;2023-02-28T00:24:35;100669.00;;;-7.41;67.39
69247;BME280;56358;56.328;43.992;2023-02-28T00:26:36;100657.72;;;-7.47;67.67
69247;BME280;56358;56.328;43.992;2023-02-28T00:28:36;100648.19;;;-7.51;67.69
69247;BME280;56358;56.328;43.992;2023-02-28T00:30:38;100642.09;;;-7.60;67.85
69247;BME280;56358;56.328;43.992;2023-02-28T00:32:39;100640.34;;;-7.54;67.73
69247;BME280;56358;56.328;43.992;2023-02-28T00:34:40;100635.16;;;-7.59;67.88
69247;BME280;56358;56.328;43.992;2023-02-28T00:36:40;100629.09;;;-7.64;67.89
69247;BME280;56358;56.328;43.992;2023-02-28T00:38:45;100634.28;;;-7.64;68.20
69247;BME280;56358;56.328;43.992;2023-02-28T00:40:46;100610.84;;;-7.80;68.26
69247;BME280;56358;56.328;43.992;2023-02-28T00:42:47;100633.41;;;-7.69;68.62
69247;BME280;56358;56.328;43.992;2023-02-28T00:44:47;100617.81;;;-7.83;68.54
69247;BME280;56358;56.328;43.992;2023-02-28T00:46:48;100623.88;;;-7.80;68.63
69247;BME280;56358;56.328;43.992;2023-02-28T00:48:49;100618.66;;;-7.89;68.90
69247;BME280;56358;56.328;43.992;2023-02-28T00:50:50;100610.88;;;-7.83;68.95
69247;BME280;56358;56.328;43.992;2023-02-28T00:52:50;100609.16;;;-7.81;69.00
69247;BME280;56358;56.328;43.992;2023-02-28T00:54:51;100610.00;;;-7.83;69.26
69247;BME280;56358;56.328;43.992;2023-02-28T00:56:52;100585.72;;;-8.01;69.25
69247;BME280;56358;56.328;43.992;2023-02-28T00:58:52;100606.56;;;-7.92;69.58
69247;BME280;56358;56.328;43.992;2023-02-28T01:00:54;100600.44;;;-7.89;69.27
69247;BME280;56358;56.328;43.992;2023-02-28T01:02:55;100591.78;;;-7.93;69.65
69247;BME280;56358;56.328;43.992;2023-02-28T01:04:55;100584.84;;;-7.97;69.54
69247;BME280;56358;56.328;43.992;2023-02-28T01:06:57;100584.84;;;-7.97;69.46
69247;BME280;56358;56.328;43.992;2023-02-28T01:08:59;100593.53;;;-7.96;69.66
69247;BME280;56358;56.328;43.992;2023-02-28T01:11:08;100580.50;;;-8.05;70.06
69247;BME280;56358;56.328;43.992;2023-02-28T01:13:09;100561.44;;;-8.04;69.96
69247;BME280;56358;56.328;43.992;2023-02-28T01:15:10;100558.81;;;-8.12;70.00
69247;BME280;56358;56.328;43.992;2023-02-28T01:17:14;100567.50;;;-8.04;69.92
69247;BME280;56358;56.328;43.992;2023-02-28T01:19:14;100557.09;;;-8.05;69.91
69247;BME280;56358;56.328;43.992;2023-02-28T01:21:18;100563.19;;;-8.14;70.45
69247;BME280;56358;56.328;43.992;2023-02-28T01:23:21;100559.69;;;-8.12;70.43
69247;BME280;56358;56.328;43.992;2023-02-28T01:25:23;100557.09;;;-8.09;70.36
69247;BME280;56358;56.328;43.992;2023-02-28T01:27:24;100558.81;;;-8.11;70.45
69247;BME280;56358;56.328;43.992;2023-02-28T01:29:25;100559.72;;;-8.10;70.50
69247;BME280;56358;56.328;43.992;2023-02-28T01:31:26;100550.19;;;-8.14;70.72
69247;BME280;56358;56.328;43.992;2023-02-28T01:33:27;100541.47;;;-8.24;70.76
69247;BME280;56358;56.328;43.992;2023-02-28T01:35:32;100546.72;;;-8.21;70.84
69247;BME280;56358;56.328;43.992;2023-02-28T01:37:33;100556.25;;;-8.15;70.86
69247;BME280;56358;56.328;43.992;2023-02-28T01:39:33;100537.16;;;-8.39;70.76
69247;BME280;56358;56.328;43.992;2023-02-28T01:41:34;100562.28;;;-8.22;70.86
69247;BME280;56358;56.328;43.992;2023-02-28T01:45:45;100555.34;;;-8.25;70.88
69247;BME280;56358;56.328;43.992;2023-02-28T01:47:46;100553.63;;;-8.29;70.83
69247;BME280;56358;56.328;43.992;2023-02-28T01:49:49;100563.16;;;-8.37;71.07
69247;BME280;56358;56.328;43.992;2023-02-28T01:51:54;100544.97;;;-8.45;71.05
69247;BME280;56358;56.328;43.992;2023-02-28T01:54:03;100546.66;;;-8.44;71.14
69247;BME280;56358;56.328;43.992;2023-02-28T01:56:07;100544.09;;;-8.46;71.39
69247;BME280;56358;56.328;43.992;2023-02-28T01:58:09;100556.22;;;-8.51;71.32
69247;BME280;56358;56.328;43.992;2023-02-28T02:00:15;100532.84;;;-8.54;71.40
69247;BME280;56358;56.328;43.992;2023-02-28T02:02:18;100540.63;;;-8.52;71.45
69247;BME280;56358;56.328;43.992;2023-02-28T02:04:19;100525.03;;;-8.52;71.61
69247;BME280;56358;56.328;43.992;2023-02-28T02:06:23;100525.03;;;-8.59;71.35
69247;BME280;56358;56.328;43.992;2023-02-28T02:08:26;100512.91;;;-8.55;71.52
69247;BME280;56358;56.328;43.992;2023-02-28T02:10:50;100508.53;;;-8.65;71.72
69247;BME280;56358;56.328;43.992;2023-02-28T02:13:00;100530.22;;;-8.63;71.86
69247;BME280;56358;56.328;43.992;2023-02-28T02:17:56;100498.13;;;-8.76;71.98
69247;BME280;56358;56.328;43.992;2023-02-28T02:41:45;100463.50;;;-8.75;72.78
69247;BME280;56358;56.328;43.992;2023-02-28T02:43:49;100453.09;;;-8.84;72.74
69247;BME280;56358;56.328;43.992;2023-02-28T02:45:57;100402.84;;;-9.05;72.85
69247;BME280;56358;56.328;43.992;2023-02-28T02:48:01;100453.13;;;-8.81;72.91
69247;BME280;56358;56.328;43.992;2023-02-28T02:50:04;100450.50;;;-8.75;72.88
69247;BME280;56358;56.328;43.992;2023-02-28T02:52:08;100439.25;;;-8.74;72.75
69247;BME280;56358;56.328;43.992;2023-02-28T02:54:40;100437.50;;;-8.75;73.02
69247;BME280;56358;56.328;43.992;2023-02-28T02:56:44;100426.25;;;-8.76;73.02
69247;BME280;56358;56.328;43.992;2023-02-28T02:58:49;100387.28;;;-8.96;72.97
69247;BME280;56358;56.328;43.992;2023-02-28T03:00:54;100395.94;;;-8.77;72.91
69247;BME280;56358;56.328;43.992;2023-02-28T03:02:56;100392.44;;;-8.69;72.61
69247;BME280;56358;56.328;43.992;2023-02-28T03:05:01;100380.31;;;-8.66;72.67
69247;BME280;56358;56.328;43.992;2023-02-28T03:07:04;100366.47;;;-8.71;72.68
69247;BME280;56358;56.328;43.992;2023-02-28T03:09:04;100366.44;;;-8.60;72.81
69247;BME280;56358;56.328;43.992;2023-02-28T03:11:07;100359.53;;;-8.61;72.31
69247;BME280;56358;56.328;43.992;2023-02-28T03:13:17;100356.91;;;-8.52;71.84
69247;BME280;56358;56.328;43.992;2023-02-28T03:15:27;100339.59;;;-8.57;71.92
69247;BME280;56358;56.328;43.992;2023-02-28T03:27:52;100262.53;;;-8.68;70.72
69247;BME280;56358;56.328;43.992;2023-02-28T03:30:02;100281.50;;;-8.46;70.84
69247;BME280;56358;56.328;43.992;2023-02-28T03:32:13;100267.69;;;-8.55;70.18
69247;BME280;56358;56.328;43.992;2023-02-28T03:34:37;100285.78;;;-8.43;70.22
69247;BME280;56358;56.328;43.992;2023-02-28T03:36:42;100270.25;;;-8.49;70.11
69247;BME280;56358;56.328;43.992;2023-02-28T03:38:57;100287.53;;;-8.44;69.93
69247;BME280;56358;56.328;43.992;2023-02-28T03:41:09;100288.38;;;-8.40;70.29
69247;BME280;56358;56.328;43.992;2023-02-28T03:43:19;100271.94;;;-8.45;69.75
69247;BME280;56358;56.328;43.992;2023-02-28T03:45:27;100288.38;;;-8.40;70.05
69247;BME280;56358;56.328;43.992;2023-02-28T03:49:42;100264.97;;;-8.42;70.08
69247;BME280;56358;56.328;43.992;2023-02-28T03:51:47;100264.97;;;-8.38;69.89
69247;BME280;56358;56.328;43.992;2023-02-28T03:53:55;100259.78;;;-8.43;69.86
69247;BME280;56358;56.328;43.992;2023-02-28T03:56:05;100253.75;;;-8.45;69.96
69247;BME280;56358;56.328;43.992;2023-02-28T04:01:05;100245.94;;;-8.44;70.19
69247;BME280;56358;56.328;43.992;2023-02-28T04:03:08;100234.66;;;-8.44;69.74
69247;BME280;56358;56.328;43.992;2023-02-28T04:05:09;100230.34;;;-8.45;69.98
69247;BME280;56358;56.328;43.992;2023-02-28T04:07:11;100220.84;;;-8.46;70.01
69247;BME280;56358;56.328;43.992;2023-02-28T04:09:14;100206.06;;;-8.44;69.97
69247;BME280;56358;56.328;43.992;2023-02-28T04:11:27;100213.00;;;-8.43;69.95
69247;BME280;56358;56.328;43.992;2023-02-28T04:13:30;100159.38;;;-8.64;70.04
69247;BME280;56358;56.328;43.992;2023-02-28T04:15:31;100188.69;;;-8.37;69.70
69247;BME280;56358;56.328;43.992;2023-02-28T04:17:32;100190.44;;;-8.36;69.44
69247;BME280;56358;56.328;43.992;2023-02-28T04:19:32;100181.75;;;-8.35;69.28
69247;BME280;56358;56.328;43.992;2023-02-28T04:21:36;100166.13;;;-8.32;69.31
69247;BME280;56358;56.328;43.992;2023-02-28T04:23:37;100162.69;;;-8.33;68.96
69247;BME280;56358;56.328;43.992;2023-02-28T04:25:37;100146.22;;;-8.36;69.04
69247;BME280;56358;56.328;43.992;2023-02-28T04:27:40;100147.91;;;-8.29;68.88
69247;BME280;56358;56.328;43.992;2023-02-28T04:29:41;100138.38;;;-8.27;68.68
69247;BME280;56358;56.328;43.992;2023-02-28T04:31:44;100126.25;;;-8.31;68.53
69247;BME280;56358;56.328;43.992;2023-02-28T04:33:45;100127.13;;;-8.34;68.70
69247;BME280;56358;56.328;43.992;2023-02-28T04:35:46;100125.34;;;-8.26;68.60
69247;BME280;56358;56.328;43.992;2023-02-28T04:37:46;100117.53;;;-8.24;68.44
69247;BME280;56358;56.328;43.992;2023-02-28T04:39:47;100113.19;;;-8.20;67.71
69247;BME280;56358;56.328;43.992;2023-02-28T04:41:48;100116.63;;;-8.15;67.60
69247;BME280;56358;56.328;43.992;2023-02-28T04:43:50;100119.16;;;-8.07;67.13
69247;BME280;56358;56.328;43.992;2023-02-28T04:45:51;100126.91;;;-8.01;66.74
69247;BME280;56358;56.328;43.992;2023-02-28T04:47:52;100079.34;;;-8.19;66.95
69247;BME280;56358;56.328;43.992;2023-02-28T04:49:54;100054.31;;;-8.34;67.09
69247;BME280;56358;56.328;43.992;2023-02-28T04:51:55;100110.41;;;-7.99;67.19
69247;BME280;56358;56.328;43.992;2023-02-28T04:53:56;100109.53;;;-7.96;67.11
69247;BME280;56358;56.328;43.992;2023-02-28T04:55:57;100111.22;;;-7.91;66.68
69247;BME280;56358;56.328;43.992;2023-02-28T04:57:58;100105.13;;;-7.88;66.87
69247;BME280;56358;56.328;43.992;2023-02-28T04:59:58;100084.47;;;-8.08;66.72
69247;BME280;56358;56.328;43.992;2023-02-28T05:01:59;100099.97;;;-7.93;66.45
69247;BME280;56358;56.328;43.992;2023-02-28T05:04:02;100069.75;;;-8.07;66.13
69247;BME280;56358;56.328;43.992;2023-02-28T05:06:03;100103.38;;;-7.89;66.30
69247;BME280;56358;56.328;43.992;2023-02-28T05:08:04;100105.97;;;-7.84;65.93
69247;BME280;56358;56.328;43.992;2023-02-28T05:10:05;100093.84;;;-7.88;66.18
69247;BME280;56358;56.328;43.992;2023-02-28T05:12:06;100073.13;;;-7.98;65.97
69247;BME280;56358;56.328;43.992;2023-02-28T05:14:13;100115.50;;;-7.82;65.55
69247;BME280;56358;56.328;43.992;2023-02-28T05:16:14;100096.31;;;-7.73;65.81
69247;BME280;56358;56.328;43.992;2023-02-28T05:18:15;100089.31;;;-7.68;65.41
69247;BME280;56358;56.328;43.992;2023-02-28T05:20:16;100091.91;;;-7.68;65.28
69247;BME280;56358;56.328;43.992;2023-02-28T05:22:17;100098.81;;;-7.64;65.33
69247;BME280;56358;56.328;43.992;2023-02-28T05:24:18;100082.38;;;-7.66;64.82
69247;BME280;56358;56.328;43.992;2023-02-28T05:26:23;100033.94;;;-7.81;64.97
69247;BME280;56358;56.328;43.992;2023-02-28T05:28:24;100011.31;;;-7.77;64.62
69247;BME280;56358;56.328;43.992;2023-02-28T05:30:25;100074.47;;;-7.56;64.43
69247;BME280;56358;56.328;43.992;2023-02-28T05:32:25;100030.06;;;-7.44;63.90
69247;BME280;56358;56.328;43.992;2023-02-28T05:34:26;100054.16;;;-7.25;64.38
69247;BME280;56358;56.328;43.992;2023-02-28T05:36:26;100030.63;;;-7.17;63.31
69247;BME280;56358;56.328;43.992;2023-02-28T05:38:27;100016.56;;;-7.05;63.44
69247;BME280;56358;56.328;43.992;2023-02-28T05:40:28;100022.59;;;-7.00;63.04
69247;BME280;56358;56.328;43.992;2023-02-28T05:42:28;100011.97;;;-6.86;62.91
69247;BME280;56358;56.328;43.992;2023-02-28T05:44:29;100005.78;;;-6.79;62.65
69247;BME280;56358;56.328;43.992;2023-02-28T05:46:30;99993.66;;;-6.80;62.26
69247;BME280;56358;56.328;43.992;2023-02-28T05:48:32;99977.00;;;-6.73;61.70
69247;BME280;56358;56.328;43.992;2023-02-28T05:50:33;99971.81;;;-6.73;61.82
69247;BME280;56358;56.328;43.992;2023-02-28T05:52:34;99970.03;;;-6.72;61.57
69247;BME280;56358;56.328;43.992;2023-02-28T05:54:35;99959.44;;;-6.62;61.14
69247;BME280;56358;56.328;43.992;2023-02-28T05:56:35;99963.00;;;-6.66;60.67
69247;BME280;56358;56.328;43.992;2023-02-28T05:58:39;99930.25;;;-6.84;60.80
69247;BME280;56358;56.328;43.992;2023-02-28T06:00:39;99908.50;;;-6.81;60.88
69247;BME280;56358;56.328;43.992;2023-02-28T06:02:40;99908.53;;;-6.83;60.89
69247;BME280;56358;56.328;43.992;2023-02-28T06:04:41;99936.97;;;-6.69;60.91
69247;BME280;56358;56.328;43.992;2023-02-28T06:06:43;99933.50;;;-6.68;60.92
69247;BME280;56358;56.328;43.992;2023-02-28T06:08:44;99935.19;;;-6.65;61.21
69247;BME280;56358;56.328;43.992;2023-02-28T06:10:46;99921.41;;;-6.74;60.88
69247;BME280;56358;56.328;43.992;2023-02-28T06:12:46;99914.28;;;-6.64;60.53
69247;BME280;56358;56.328;43.992;2023-02-28T06:14:47;99914.22;;;-6.61;60.71
69247;BME280;56358;56.328;43.992;2023-02-28T06:16:47;99895.94;;;-6.58;60.55
69247;BME280;56358;56.328;43.992;2023-02-28T06:18:48;99893.25;;;-6.53;60.38
69247;BME280;56358;56.328;43.992;2023-02-28T06:20:53;99867.44;;;-6.67;60.13
69247;BME280;56358;56.328;43.992;2023-02-28T06:22:58;99893.13;;;-6.45;59.89
69247;BME280;56358;56.328;43.992;2023-02-28T06:24:59;99866.31;;;-6.53;59.30
69247;BME280;56358;56.328;43.992;2023-02-28T06:26:59;99826.53;;;-6.65;59.21
69247;BME280;56358;56.328;43.992;2023-02-28T06:29:05;99858.88;;;-6.28;59.10
69247;BME280;56358;56.328;43.992;2023-02-28T06:31:15;99862.19;;;-6.18;58.69
69247;BME280;56358;56.328;43.992;2023-02-28T06:33:16;99833.34;;;-6.12;58.90
69247;BME280;56358;56.328;43.992;2023-02-28T06:35:17;99834.09;;;-6.06;58.63
69247;BME280;56358;56.328;43.992;2023-02-28T06:37:18;99834.84;;;-5.99;57.30
69247;BME280;56358;56.328;43.992;2023-02-28T06:39:19;99816.34;;;-5.90;57.04
69247;BME280;56358;56.328;43.992;2023-02-28T06:41:22;99824.75;;;-5.75;57.47
69247;BME280;56358;56.328;43.992;2023-02-28T06:43:24;99807.38;;;-5.78;56.99
69247;BME280;56358;56.328;43.992;2023-02-28T06:45:25;99806.38;;;-5.70;56.88
69247;BME280;56358;56.328;43.992;2023-02-28T06:47:26;99801.00;;;-5.64;56.49
69247;BME280;56358;56.328;43.992;2023-02-28T06:49:27;99790.50;;;-5.63;56.96
69247;BME280;56358;56.328;43.992;2023-02-28T06:51:28;99772.22;;;-5.63;57.25
69247;BME280;56358;56.328;43.992;2023-02-28T06:53:29;99756.91;;;-5.77;56.39
69247;BME280;56358;56.328;43.992;2023-02-28T06:55:29;99753.31;;;-5.73;57.03
69247;BME280;56358;56.328;43.992;2023-02-28T06:57:31;99780.66;;;-5.50;56.87
69247;BME280;56358;56.328;43.992;2023-02-28T06:59:33;99767.78;;;-5.58;57.16
69247;BME280;56358;56.328;43.992;2023-02-28T07:01:35;99711.63;;;-5.76;57.69
69247;BME280;56358;56.328;43.992;2023-02-28T07:03:36;99755.22;;;-5.42;57.28
69247;BME280;56358;56.328;43.992;2023-02-28T07:05:38;99742.06;;;-5.37;56.88
69247;BME280;56358;56.328;43.992;2023-02-28T07:07:39;99753.34;;;-5.36;56.91
69247;BME280;56358;56.328;43.992;2023-02-28T07:09:44;99752.41;;;-5.34;57.48
69247;BME280;56358;56.328;43.992;2023-02-28T07:11:44;99740.16;;;-5.32;56.95
69247;BME280;56358;56.328;43.992;2023-02-28T07:13:45;99741.56;;;-5.18;57.02
69247;BME280;56358;56.328;43.992;2023-02-28T07:16:02;99721.31;;;-5.09;57.19
69247;BME280;56358;56.328;43.992;2023-02-28T07:18:04;99711.66;;;-5.07;57.33
69247;BME280;56358;56.328;43.992;2023-02-28T07:20:05;99704.75;;;-5.09;57.29
69247;BME280;56358;56.328;43.992;2023-02-28T07:22:07;99710.00;;;-5.11;56.89
69247;BME280;56358;56.328;43.992;2023-02-28T07:24:08;99667.13;;;-5.36;57.03
69247;BME280;56358;56.328;43.992;2023-02-28T07:26:14;99703.00;;;-5.09;57.33
69247;BME280;56358;56.328;43.992;2023-02-28T07:28:15;99706.38;;;-5.05;57.13
69247;BME280;56358;56.328;43.992;2023-02-28T07:30:16;99696.38;;;-4.89;57.03
69247;BME280;56358;56.328;43.992;2023-02-28T07:32:18;99676.06;;;-4.79;56.70
69247;BME280;56358;56.328;43.992;2023-02-28T07:34:19;99677.94;;;-4.53;56.22
69247;BME280;56358;56.328;43.992;2023-02-28T07:36:20;99687.50;;;-4.52;55.77
69247;BME280;56358;56.328;43.992;2023-02-28T07:38:21;99662.25;;;-4.53;55.61
69247;BME280;56358;56.328;43.992;2023-02-28T07:40:22;99657.94;;;-4.56;55.78
69247;BME280;56358;56.328;43.992;2023-02-28T07:42:22;99652.69;;;-4.54;55.62
69247;BME280;56358;56.328;43.992;2023-02-28T07:44:23;99654.06;;;-4.42;55.98
69247;BME280;56358;56.328;43.992;2023-02-28T07:46:24;99664.66;;;-4.17;56.20
69247;BME280;56358;56.328;43.992;2023-02-28T07:48:24;99650.22;;;-4.00;55.23
69247;BME280;56358;56.328;43.992;2023-02-28T07:50:26;99651.16;;;-3.75;54.63
69247;BME280;56358;56.328;43.992;2023-02-28T07:52:30;99646.91;;;-3.79;54.33
69247;BME280;56358;56.328;43.992;2023-02-28T07:54:33;99594.53;;;-4.06;54.40
69247;BME280;56358;56.328;43.992;2023-02-28T07:56:33;99638.00;;;-3.73;54.70
69247;BME280;56358;56.328;43.992;2023-02-28T07:58:34;99630.03;;;-3.70;54.77
69247;BME280;56358;56.328;43.992;2023-02-28T08:00:35;99574.38;;;-4.04;54.65
69247;BME280;56358;56.328;43.992;2023-02-28T08:02:36;99634.91;;;-3.59;54.67
69247;BME280;56358;56.328;43.992;2023-02-28T08:04:37;99622.88;;;-3.65;54.59
69247;BME280;56358;56.328;43.992;2023-02-28T08:06:37;99633.88;;;-3.54;54.80
69247;BME280;56358;56.328;43.992;2023-02-28T08:08:38;99639.75;;;-3.47;55.28
69247;BME280;56358;56.328;43.992;2023-02-28T08:10:39;99633.59;;;-3.46;55.04
69247;BME280;56358;56.328;43.992;2023-02-28T08:12:40;99630.19;;;-3.48;55.54
69247;BME280;56358;56.328;43.992;2023-02-28T08:14:40;99630.06;;;-3.45;54.59
69247;BME280;56358;56.328;43.992;2023-02-28T08:16:41;99635.50;;;-3.51;55.53
69247;BME280;56358;56.328;43.992;2023-02-28T08:18:43;99649.59;;;-3.54;55.76
69247;BME280;56358;56.328;43.992;2023-02-28T08:20:44;99645.19;;;-3.53;55.72
69247;BME280;56358;56.328;43.992;2023-02-28T08:22:44;99641.88;;;-3.58;56.29
69247;BME280;56358;56.328;43.992;2023-02-28T08:24:45;99656.53;;;-3.53;56.22
69247;BME280;56358;56.328;43.992;2023-02-28T08:26:46;99636.47;;;-3.54;56.89
69247;BME280;56358;56.328;43.992;2023-02-28T08:28:47;99611.94;;;-3.78;56.40
69247;BME280;56358;56.328;43.992;2023-02-28T08:30:47;99634.81;;;-3.56;56.94
69247;BME280;56358;56.328;43.992;2023-02-28T08:32:49;99600.72;;;-3.81;56.90
69247;BME280;56358;56.328;43.992;2023-02-28T08:34:50;99641.06;;;-3.60;56.77
69247;BME280;56358;56.328;43.992;2023-02-28T08:36:50;99662.06;;;-3.62;56.48
69247;BME280;56358;56.328;43.992;2023-02-28T08:38:51;99660.66;;;-3.72;56.44
69247;BME280;56358;56.328;43.992;2023-02-28T08:41:06;99646.69;;;-3.73;56.49
69247;BME280;56358;56.328;43.992;2023-02-28T08:43:07;99616.97;;;-3.98;56.64
69247;BME280;56358;56.328;43.992;2023-02-28T08:45:08;99627.22;;;-3.91;57.26
69247;BME280;56358;56.328;43.992;2023-02-28T08:47:09;99635.00;;;-3.89;57.11
69247;BME280;56358;56.328;43.992;2023-02-28T08:49:10;99628.81;;;-3.87;57.40
69247;BME280;56358;56.328;43.992;2023-02-28T08:51:13;99630.53;;;-3.85;57.64
69247;BME280;56358;56.328;43.992;2023-02-28T08:53:17;99614.81;;;-3.85;57.99
69247;BME280;56358;56.328;43.992;2023-02-28T08:55:18;99614.47;;;-3.75;58.04
69247;BME280;56358;56.328;43.992;2023-02-28T08:57:18;99620.38;;;-3.68;57.83
69247;BME280;56358;56.328;43.992;2023-02-28T08:59:19;99608.97;;;-3.67;57.63
69247;BME280;56358;56.328;43.992;2023-02-28T09:01:22;99615.84;;;-3.63;57.39
69247;BME280;56358;56.328;43.992;2023-02-28T09:03:23;99604.66;;;-3.68;57.29
69247;BME280;56358;56.328;43.992;2023-02-28T09:05:24;99602.22;;;-3.74;57.41
69247;BME280;56358;56.328;43.992;2023-02-28T09:07:25;99595.13;;;-3.71;58.27
69247;BME280;56358;56.328;43.992;2023-02-28T09:09:26;99596.13;;;-3.75;58.02
69247;BME280;56358;56.328;43.992;2023-02-28T09:11:27;99582.16;;;-3.75;58.08
69247;BME280;56358;56.328;43.992;2023-02-28T09:13:29;99602.03;;;-3.68;58.26
69247;BME280;56358;56.328;43.992;2023-02-28T09:15:30;99596.78;;;-3.68;58.64
69247;BME280;56358;56.328;43.992;2023-02-28T09:17:30;99612.41;;;-3.65;58.78
69247;BME280;56358;56.328;43.992;2023-02-28T09:19:31;99602.72;;;-3.63;59.20
69247;BME280;56358;56.328;43.992;2023-02-28T09:21:32;99606.97;;;-3.59;59.08
69247;BME280;56358;56.328;43.992;2023-02-28T09:23:33;99600.13;;;-3.63;58.93
69247;BME280;56358;56.328;43.992;2023-02-28T09:25:35;99595.66;;;-3.61;58.98
69247;BME280;56358;56.328;43.992;2023-02-28T09:27:35;99598.13;;;-3.56;59.10
69247;BME280;56358;56.328;43.992;2023-02-28T10:19:53;99587.94;;;-3.91;65.19
69247;BME280;56358;56.328;43.992;2023-02-28T10:22:19;99563.75;;;-3.99;65.45
69247;BME280;56358;56.328;43.992;2023-02-28T10:24:35;99548.06;;;-3.99;65.96
69247;BME280;56358;56.328;43.992;2023-02-28T10:26:43;99557.22;;;-3.85;65.95
69247;BME280;56358;56.328;43.992;2023-02-28T10:28:44;99504.69;;;-4.08;65.79
69247;BME280;56358;56.328;43.992;2023-02-28T10:31:00;99549.13;;;-3.79;65.68
69247;BME280;56358;56.328;43.992;2023-02-28T10:33:25;99555.06;;;-3.74;65.81
69247;BME280;56358;56.328;43.992;2023-02-28T10:35:28;99554.94;;;-3.71;65.78
69247;BME280;56358;56.328;43.992;2023-02-28T10:38:03;99556.84;;;-3.75;66.43
69247;BME280;56358;56.328;43.992;2023-02-28T10:42:27;99530.97;;;-3.84;66.77
69247;BME280;56358;56.328;43.992;2023-02-28T10:44:31;99541.22;;;-3.78;67.35
69247;BME280;56358;56.328;43.992;2023-02-28T10:46:33;99544.69;;;-3.77;67.55
69247;BME280;56358;56.328;43.992;2023-02-28T10:48:38;99514.59;;;-3.91;68.30
69247;BME280;56358;56.328;43.992;2023-02-28T10:50:52;99515.13;;;-3.81;68.88
69247;BME280;56358;56.328;43.992;2023-02-28T10:53:13;99479.16;;;-4.01;69.01
69247;BME280;56358;56.328;43.992;2023-02-28T10:55:26;99532.50;;;-3.78;68.95
69247;BME280;56358;56.328;43.992;2023-02-28T10:57:32;99515.19;;;-3.82;68.60
69247;BME280;56358;56.328;43.992;2023-02-28T10:59:33;99516.09;;;-3.83;68.81
69247;BME280;56358;56.328;43.992;2023-02-28T11:01:46;99499.53;;;-3.84;68.66
69247;BME280;56358;56.328;43.992;2023-02-28T11:12:25;99488.88;;;-4.05;71.78
69247;BME280;56358;56.328;43.992;2023-02-28T11:14:32;99470.00;;;-4.14;72.06
69247;BME280;56358;56.328;43.992;2023-02-28T11:16:36;99512.59;;;-4.09;72.27
69247;BME280;56358;56.328;43.992;2023-02-28T11:18:50;99483.09;;;-4.14;72.32
69247;BME280;56358;56.328;43.992;2023-02-28T11:20:54;99419.34;;;-4.39;72.78
69247;BME280;56358;56.328;43.992;2023-02-28T11:22:57;99489.44;;;-3.95;72.90
69247;BME280;56358;56.328;43.992;2023-02-28T11:25:01;99476.34;;;-3.95;72.87
69247;BME280;56358;56.328;43.992;2023-02-28T11:27:03;99472.38;;;-3.81;72.51
69247;BME280;56358;56.328;43.992;2023-02-28T11:29:16;99487.84;;;-3.74;72.64
69247;BME280;56358;56.328;43.992;2023-02-28T11:31:19;99486.91;;;-3.73;72.48
69247;BME280;56358;56.328;43.992;2023-02-28T11:33:31;99457.13;;;-3.95;72.65
69247;BME280;56358;56.328;43.992;2023-02-28T11:35:36;99477.13;;;-3.93;72.90
69247;BME280;56358;56.328;43.992;2023-02-28T11:37:40;99501.97;;;-3.79;72.78
69247;BME280;56358;56.328;43.992;2023-02-28T11:39:41;99503.91;;;-3.84;73.13
69247;BME280;56358;56.328;43.992;2023-02-28T11:44:04;99475.00;;;-3.81;73.30
69247;BME280;56358;56.328;43.992;2023-02-28T11:48:25;99479.09;;;-3.74;73.44
69247;BME280;56358;56.328;43.992;2023-02-28T11:52:41;99478.19;;;-3.73;73.60
69247;BME280;56358;56.328;43.992;2023-02-28T11:54:52;99475.53;;;-3.72;73.51
69247;BME280;56358;56.328;43.992;2023-02-28T11:57:00;99479.03;;;-3.73;74.04
69247;BME280;56358;56.328;43.992;2023-02-28T12:01:33;99478.34;;;-3.78;75.32
69247;BME280;56358;56.328;43.992;2023-02-28T12:08:12;99470.88;;;-3.89;76.65
69247;BME280;56358;56.328;43.992;2023-02-28T12:18:00;99440.31;;;-3.88;76.90
69247;BME280;56358;56.328;43.992;2023-02-28T12:22:00;99451.31;;;-3.78;77.19
69247;BME280;56358;56.328;43.992;2023-02-28T12:28:21;99402.38;;;-4.01;77.36
69247;BME280;56358;56.328;43.992;2023-02-28T12:30:35;99419.50;;;-3.93;77.50
69247;BME280;56358;56.328;43.992;2023-02-28T12:32:41;99413.59;;;-3.98;77.54
69247;BME280;56358;56.328;43.992;2023-02-28T12:34:50;99414.22;;;-3.91;77.48
69247;BME280;56358;56.328;43.992;2023-02-28T12:36:53;99374.38;;;-4.25;77.66
69247;BME280;56358;56.328;43.992;2023-02-28T12:39:20;99426.41;;;-3.90;77.68
69247;BME280;56358;56.328;43.992;2023-02-28T12:41:36;99418.50;;;-3.89;77.99
69247;BME280;56358;56.328;43.992;2023-02-28T12:43:46;99399.66;;;-3.98;77.70
69247;BME280;56358;56.328;43.992;2023-02-28T12:45:55;99322.66;;;-4.42;77.42
69247;BME280;56358;56.328;43.992;2023-02-28T12:48:04;99387.88;;;-3.87;77.48
69247;BME280;56358;56.328;43.992;2023-02-28T12:50:08;99392.09;;;-3.82;77.18
69247;BME280;56358;56.328;43.992;2023-02-28T12:52:13;99396.53;;;-3.84;76.89